createdAt,value
2022-11-15T00:00:39.488Z,99164.59
2022-11-15T00:03:47.042Z,99171.13
2022-11-15T00:06:55.091Z,99166.94
2022-11-15T00:10:01.777Z,99174.78
2022-11-15T00:13:09.204Z,99168.75
2022-11-15T00:16:15.612Z,99170.84
2022-11-15T00:19:22.316Z,99171.13
2022-11-15T00:22:35.856Z,99161.66
2022-11-15T00:25:42.612Z,99162.94
2022-11-15T00:28:49.167Z,99164.25
2022-11-15T00:31:55.783Z,99164.75
2022-11-15T00:35:01.960Z,99161.06
2022-11-15T00:38:09.875Z,99159.75
2022-11-15T00:41:16.370Z,99150.88
2022-11-15T00:44:23.432Z,99156.34
2022-11-15T00:47:30.346Z,99155.53
2022-11-15T00:50:37.139Z,99149.78
2022-11-15T00:53:44.980Z,99146.38
2022-11-15T00:56:51.734Z,99153.41
2022-11-15T00:59:58.366Z,99147.91
2022-11-15T01:03:05.475Z,99147.91
2022-11-15T01:06:12.803Z,99141.88
2022-11-15T01:09:20.734Z,99157.03
2022-11-15T01:12:27.643Z,99149.19
2022-11-15T01:15:33.999Z,99137.19
2022-11-15T01:18:40.791Z,99141.34
2022-11-15T01:21:47.212Z,99141.34
2022-11-15T01:24:55.080Z,99142.66
2022-11-15T01:28:01.608Z,99141.09
2022-11-15T01:31:15.522Z,99132.72
2022-11-15T01:34:22.238Z,99136.88
2022-11-15T01:37:28.836Z,99141.81
2022-11-15T01:40:37.128Z,99132.41
2022-11-15T01:43:43.815Z,99135.81
2022-11-15T01:46:51.103Z,99131.91
2022-11-15T01:50:01.347Z,99124.88
2022-11-15T01:53:08.066Z,99125.63
2022-11-15T01:56:20.893Z,99123.03
2022-11-15T01:59:28.067Z,99126.69
2022-11-15T02:02:36.099Z,99120.13
2022-11-15T02:05:43.714Z,99118.56
2022-11-15T02:08:50.659Z,99113.06
2022-11-15T02:11:59.383Z,99101.03
2022-11-15T02:15:08.847Z,99105.22
2022-11-15T02:18:25.628Z,99104.97
2022-11-15T02:21:43.477Z,99103.41
2022-11-15T02:25:26.345Z,99086.63
2022-11-15T02:28:54.890Z,99078.78
2022-11-15T02:32:10.466Z,99070.13
2022-11-15T02:35:28.677Z,99076.13
2022-11-15T02:38:46.802Z,99066.41
2022-11-15T02:41:59.883Z,99069.28
2022-11-15T02:45:09.505Z,99067.41
2022-11-15T02:48:19.346Z,99058.28
2022-11-15T02:51:26.563Z,99060.38
2022-11-15T02:54:35.674Z,99059.81
2022-11-15T02:57:48.240Z,99050.13
2022-11-15T03:01:04.935Z,99043.25
2022-11-15T03:04:26.260Z,99033.59
2022-11-15T03:07:39.864Z,99040.09
2022-11-15T03:10:58.686Z,99034.34
2022-11-15T03:14:16.394Z,99033.03
2022-11-15T03:17:27.303Z,99035.66
2022-11-15T03:20:37.461Z,99026.47
2022-11-15T03:23:45.709Z,99036.41
2022-11-15T03:26:53.612Z,99039.00
2022-11-15T03:30:05.251Z,99031.16
2022-11-15T03:33:13.534Z,99032.97
2022-11-15T03:36:22.774Z,99037.16
2022-11-15T03:39:30.524Z,99034.78
2022-11-15T03:42:45.004Z,99033.97
2022-11-15T03:45:56.805Z,99037.63
2022-11-15T03:49:10.875Z,99043.56
2022-11-15T03:52:20.877Z,99052.66
2022-11-15T03:55:27.373Z,99036.75
2022-11-15T03:58:34.556Z,99042.50
2022-11-15T04:01:41.080Z,99032.06
2022-11-15T04:04:47.846Z,99017.72
2022-11-15T04:07:56.276Z,99027.38
2022-11-15T04:11:03.207Z,99028.94
2022-11-15T04:14:09.804Z,99034.47
2022-11-15T04:17:16.309Z,99037.34
2022-11-15T04:20:42.881Z,99041.53
2022-11-15T04:24:08.421Z,99049.13
2022-11-15T04:27:15.195Z,99036.06
2022-11-15T04:30:22.068Z,99033.47
2022-11-15T04:33:28.984Z,99042.84
2022-11-15T04:36:53.673Z,99027.94
2022-11-15T04:40:01.834Z,99042.28
2022-11-15T04:43:08.886Z,99033.66
2022-11-15T04:46:15.688Z,99031.53
2022-11-15T04:49:22.471Z,99028.16
2022-11-15T04:52:29.401Z,99031.03
2022-11-15T04:55:37.155Z,99030.22
2022-11-15T04:58:44.034Z,99008.59
2022-11-15T05:01:50.812Z,99014.81
2022-11-15T05:04:56.332Z,99015.63
2022-11-15T05:08:03.233Z,99008.31
2022-11-15T05:11:11.206Z,99002.59
2022-11-15T05:14:18.061Z,98996.38
2022-11-15T05:17:24.595Z,98999.22
2022-11-15T05:20:31.138Z,98992.13
2022-11-15T05:23:37.459Z,98989.78
2022-11-15T05:26:45.259Z,98990.28
2022-11-15T05:29:52.006Z,98985.06
2022-11-15T05:32:58.879Z,98976.97
2022-11-15T05:36:10.177Z,98986.66
2022-11-15T05:39:16.886Z,98983.00
2022-11-15T05:42:25.305Z,98986.34
2022-11-15T05:45:32.468Z,98977.72
2022-11-15T05:48:42.948Z,98977.97
2022-11-15T05:51:51.018Z,98975.88
2022-11-15T05:54:59.349Z,98985.28
2022-11-15T05:58:07.887Z,98972.50
2022-11-15T06:01:15.298Z,98980.25
2022-11-15T06:04:22.002Z,98973.97
2022-11-15T06:07:28.670Z,98991.19
2022-11-15T06:10:35.687Z,98988.06
2022-11-15T06:13:43.994Z,98971.06
2022-11-15T06:16:50.955Z,98989.59
2022-11-15T06:19:57.531Z,98989.84
2022-11-15T06:23:06.772Z,98994.25
2022-11-15T06:26:13.240Z,98985.41
2022-11-15T06:29:21.510Z,98987.75
2022-11-15T06:32:28.440Z,98998.19
2022-11-15T06:35:37.203Z,98996.91
2022-11-15T06:38:44.010Z,98984.91
2022-11-15T06:41:50.710Z,98993.28
2022-11-15T06:44:58.990Z,98990.44
2022-11-15T06:48:06.523Z,99003.22
2022-11-15T06:51:13.355Z,98983.91
2022-11-15T06:54:21.864Z,98989.63
2022-11-15T06:57:28.285Z,98996.66
2022-11-15T07:00:36.694Z,98990.13
2022-11-15T07:03:44.993Z,98998.19
2022-11-15T07:06:33.127Z,98998.19
2022-11-15T07:09:20.942Z,98992.72
2022-11-15T07:12:09.229Z,98984.91
2022-11-15T07:14:56.888Z,98990.13
2022-11-15T07:17:46.079Z,98991.16
2022-11-15T07:20:34.154Z,98990.13
2022-11-15T07:23:21.914Z,98980.75
2022-11-15T07:26:11.027Z,98980.31
2022-11-15T07:28:58.954Z,98983.50
2022-11-15T07:31:46.801Z,98987.72
2022-11-15T07:34:36.186Z,98988.78
2022-11-15T07:37:23.886Z,98993.53
2022-11-15T07:40:13.545Z,98997.19
2022-11-15T07:43:02.993Z,98994.09
2022-11-15T07:45:55.998Z,98997.00
2022-11-15T07:48:46.417Z,98993.34
2022-11-15T07:51:35.560Z,98997.25
2022-11-15T07:54:23.059Z,98997.56
2022-11-15T07:57:11.565Z,99010.34
2022-11-15T07:59:59.489Z,98994.97
2022-11-15T08:02:48.033Z,98996.06
2022-11-15T08:05:37.611Z,98996.59
2022-11-15T08:08:26.893Z,98993.75
2022-11-15T08:11:15.315Z,98996.91
2022-11-15T08:14:03.270Z,98996.16
2022-11-15T08:16:51.089Z,98997.47
2022-11-15T08:19:38.856Z,98994.88
2022-11-15T08:22:26.893Z,98984.44
2022-11-15T08:25:17.158Z,98977.47
2022-11-15T08:28:12.164Z,98975.41
2022-11-15T08:31:00.192Z,98968.91
2022-11-15T08:33:48.357Z,98974.91
2022-11-15T08:36:44.566Z,98966.31
2022-11-15T08:39:34.296Z,98960.06
2022-11-15T08:42:23.695Z,98967.63
2022-11-15T08:45:12.387Z,98959.78
2022-11-15T08:48:00.128Z,98957.16
2022-11-15T08:50:47.923Z,98957.69
2022-11-15T08:53:36.951Z,98950.16
2022-11-15T08:56:24.648Z,98948.03
2022-11-15T08:59:14.188Z,98945.97
2022-11-15T09:02:02.384Z,98951.44
2022-11-15T09:04:53.220Z,98948.06
2022-11-15T09:07:41.044Z,98954.38
2022-11-15T09:10:28.641Z,98948.09
2022-11-15T09:13:16.404Z,98944.97
2022-11-15T09:16:07.045Z,98944.72
2022-11-15T09:18:55.659Z,98944.69
2022-11-15T09:21:43.854Z,98942.38
2022-11-15T09:24:31.624Z,98929.53
2022-11-15T09:27:19.674Z,98938.72
2022-11-15T09:30:08.962Z,98948.66
2022-11-15T09:32:58.571Z,98950.72
2022-11-15T09:35:46.316Z,98938.97
2022-11-15T09:38:35.033Z,98944.19
2022-11-15T09:41:54.587Z,98938.97
2022-11-15T09:45:02.133Z,98946.56
2022-11-15T09:48:16.417Z,98938.19
2022-11-15T09:51:17.793Z,98939.72
2022-11-15T09:57:15.934Z,98933.44
2022-11-15T10:03:14.830Z,98922.16
2022-11-15T10:05:46.327Z,98921.88
2022-11-15T10:08:48.843Z,98927.09
2022-11-15T10:20:56.002Z,98910.94
2022-11-15T10:23:26.761Z,98907.22
2022-11-15T10:26:07.208Z,98910.41
2022-11-15T10:28:37.167Z,98896.50
2022-11-15T10:34:26.152Z,98906.72
2022-11-15T10:37:02.898Z,98901.97
2022-11-15T10:39:34.538Z,98898.38
2022-11-15T10:42:20.298Z,98902.53
2022-11-15T10:44:49.704Z,98898.34
2022-11-15T10:47:39.667Z,98888.13
2022-11-15T10:50:37.923Z,98883.91
2022-11-15T10:54:12.973Z,98878.91
2022-11-15T11:00:36.649Z,98871.06
2022-11-15T11:03:38.752Z,98871.06
2022-11-15T11:06:47.674Z,98863.47
2022-11-15T11:09:34.045Z,98853.22
2022-11-15T11:12:05.826Z,98855.56
2022-11-15T11:14:40.981Z,98854.28
2022-11-15T11:17:21.813Z,98843.50
2022-11-15T11:20:05.664Z,98852.06
2022-11-15T11:23:07.013Z,98839.44
2022-11-15T11:25:50.284Z,98828.94
2022-11-15T11:28:43.223Z,98837.56
2022-11-15T11:31:31.731Z,98834.63
2022-11-15T11:34:17.402Z,98842.41
2022-11-15T11:37:34.205Z,98812.28
2022-11-15T11:40:47.838Z,98814.38
2022-11-15T11:43:45.527Z,98807.22
2022-11-15T11:46:34.762Z,98806.66
2022-11-15T11:49:11.429Z,98801.91
2022-11-15T11:51:45.257Z,98799.53
2022-11-15T11:54:20.402Z,98782.97
2022-11-15T11:56:51.159Z,98780.09
2022-11-15T11:59:33.476Z,98780.56
2022-11-15T12:02:15.709Z,98777.19
2022-11-15T12:04:59.108Z,98780.31
2022-11-15T12:07:35.037Z,98770.06
2022-11-15T12:10:17.921Z,98766.03
2022-11-15T12:12:56.783Z,98752.53
2022-11-15T12:15:32.706Z,98759.28
2022-11-15T12:18:04.216Z,98762.81
2022-11-15T12:20:42.314Z,98753.56
2022-11-15T12:23:22.246Z,98735.16
2022-11-15T12:25:57.077Z,98725.97
2022-11-15T12:28:38.411Z,98730.06
2022-11-15T12:31:41.376Z,98719.56
2022-11-15T12:34:37.697Z,98718.28
2022-11-15T12:37:57.653Z,98720.72
2022-11-15T12:40:54.879Z,98712.84
2022-11-15T12:43:47.657Z,98714.16
2022-11-15T12:47:02.576Z,98700.28
2022-11-15T12:49:56.348Z,98705.53
2022-11-15T12:56:38.436Z,98702.97
2022-11-15T12:59:13.372Z,98701.13
2022-11-15T13:02:26.213Z,98704.06
2022-11-15T13:05:54.705Z,98692.25
2022-11-15T13:08:48.685Z,98690.13
2022-11-15T13:11:54.168Z,98687.78
2022-11-15T13:15:10.592Z,98683.63
2022-11-15T13:18:04.208Z,98691.50
2022-11-15T13:20:35.630Z,98685.97
2022-11-15T13:23:14.306Z,98683.34
2022-11-15T13:26:23.617Z,98686.25
2022-11-15T13:29:13.586Z,98682.31
2022-11-15T13:31:59.366Z,98665.28
2022-11-15T13:35:09.473Z,98666.13
2022-11-15T13:38:23.894Z,98659.13
2022-11-15T13:40:53.760Z,98650.72
2022-11-15T13:43:33.961Z,98648.41
2022-11-15T13:46:26.075Z,98640.53
2022-11-15T13:48:59.327Z,98641.31
2022-11-15T13:51:41.416Z,98644.69
2022-11-15T13:54:39.773Z,98627.41
2022-11-15T13:57:28.840Z,98628.94
2022-11-15T14:00:06.673Z,98622.66
2022-11-15T14:02:50.891Z,98617.13
2022-11-15T14:05:23.469Z,98617.06
2022-11-15T14:07:59.484Z,98605.78
2022-11-15T14:10:34.844Z,98604.94
2022-11-15T14:13:18.911Z,98598.34
2022-11-15T14:15:49.028Z,98596.22
2022-11-15T14:18:48.115Z,98597.00
2022-11-15T14:21:19.230Z,98592.53
2022-11-15T14:23:53.217Z,98594.31
2022-11-15T14:26:53.640Z,98590.91
2022-11-15T14:29:33.239Z,98586.16
2022-11-15T14:32:28.199Z,98579.84
2022-11-15T14:35:00.813Z,98564.16
2022-11-15T14:37:36.215Z,98575.16
2022-11-15T14:40:36.114Z,98570.97
2022-11-15T14:44:03.678Z,98556.34
2022-11-15T14:46:55.306Z,98559.06
2022-11-15T14:49:39.241Z,98559.63
2022-11-15T14:52:41.847Z,98550.06
2022-11-15T14:56:45.877Z,98562.50
2022-11-15T14:59:39.813Z,98550.78
2022-11-15T15:02:28.931Z,98556.91
2022-11-15T15:06:05.557Z,98552.81
2022-11-15T15:08:54.351Z,98545.59
2022-11-15T15:12:06.425Z,98539.38
2022-11-15T15:14:43.312Z,98536.00
2022-11-15T15:17:53.866Z,98526.31
2022-11-15T15:21:14.801Z,98520.97
2022-11-15T15:24:15.835Z,98504.97
2022-11-15T15:26:46.296Z,98512.25
2022-11-15T15:29:16.533Z,98498.59
2022-11-15T15:31:46.674Z,98491.47
2022-11-15T15:34:18.473Z,98482.25
2022-11-15T15:37:11.617Z,98475.19
2022-11-15T15:39:44.514Z,98474.13
2022-11-15T15:42:14.285Z,98467.56
2022-11-15T15:44:44.076Z,98473.56
2022-11-15T15:47:17.845Z,98464.97
2022-11-15T15:50:00.717Z,98469.69
2022-11-15T15:52:30.512Z,98478.59
2022-11-15T15:55:00.166Z,98474.94
2022-11-15T15:57:30.042Z,98479.94
2022-11-15T15:59:59.927Z,98470.84
2022-11-15T16:02:29.914Z,98466.44
2022-11-15T16:05:01.266Z,98468.91
2022-11-15T16:07:31.600Z,98472.03
2022-11-15T16:10:04.199Z,98478.31
2022-11-15T16:12:46.606Z,98480.94
2022-11-15T16:15:47.615Z,98477.88
2022-11-15T16:18:19.440Z,98471.19
2022-11-15T16:20:53.300Z,98468.91
2022-11-15T16:23:24.725Z,98470.56
2022-11-15T16:25:57.275Z,98468.13
2022-11-15T16:28:29.298Z,98461.94
2022-11-15T16:31:06.764Z,98453.34
2022-11-15T16:33:36.711Z,98457.78
2022-11-15T16:36:28.504Z,98449.94
2022-11-15T16:39:00.184Z,98446.28
2022-11-15T16:41:30.357Z,98445.47
2022-11-15T16:43:59.851Z,98450.69
2022-11-15T16:46:30.421Z,98445.72
2022-11-15T16:48:59.954Z,98441.25
2022-11-15T16:51:30.806Z,98437.59
2022-11-15T16:54:00.277Z,98430.22
2022-11-15T16:56:31.864Z,98430.22
2022-11-15T16:59:02.786Z,98423.72
2022-11-15T17:01:46.627Z,98415.34
2022-11-15T17:04:18.190Z,98412.28
2022-11-15T17:06:50.010Z,98411.28
2022-11-15T17:09:24.546Z,98404.72
2022-11-15T17:11:54.346Z,98403.94
2022-11-15T17:14:23.803Z,98396.13
2022-11-15T17:16:55.541Z,98394.56
2022-11-15T17:19:25.247Z,98386.72
2022-11-15T17:21:56.202Z,98393.31
2022-11-15T17:24:25.975Z,98394.84
2022-11-15T17:26:55.515Z,98395.38
2022-11-15T17:29:25.074Z,98389.28
2022-11-15T17:31:54.573Z,98385.53
2022-11-15T17:34:23.988Z,98382.88
2022-11-15T17:36:53.420Z,98377.09
2022-11-15T17:39:25.111Z,98374.94
2022-11-15T17:41:54.499Z,98369.72
2022-11-15T17:44:23.947Z,98370.50
2022-11-15T17:46:53.639Z,98370.78
2022-11-15T17:49:23.170Z,98372.41
2022-11-15T17:51:53.922Z,98366.16
2022-11-15T17:54:24.835Z,98367.72
2022-11-15T17:56:54.281Z,98363.47
2022-11-15T17:59:23.730Z,98361.38
2022-11-15T18:01:54.050Z,98352.94
2022-11-15T18:04:28.288Z,98358.69
2022-11-15T18:06:57.824Z,98356.56
2022-11-15T18:09:28.746Z,98352.88
2022-11-15T18:11:58.781Z,98349.19
2022-11-15T18:14:30.048Z,98346.31
2022-11-15T18:16:59.510Z,98344.75
2022-11-15T18:19:29.180Z,98342.41
2022-11-15T18:21:59.084Z,98342.41
2022-11-15T18:24:31.787Z,98336.09
2022-11-15T18:27:05.657Z,98333.47
2022-11-15T18:29:38.016Z,98340.28
2022-11-15T18:32:12.448Z,98331.09
2022-11-15T18:34:42.149Z,98327.13
2022-11-15T18:37:11.726Z,98328.19
2022-11-15T18:39:42.628Z,98329.25
2022-11-15T18:42:12.034Z,98323.72
2022-11-15T18:44:41.532Z,98330.72
2022-11-15T18:47:11.221Z,98322.31
2022-11-15T18:49:40.792Z,98311.03
2022-11-15T18:52:10.226Z,98319.69
2022-11-15T18:54:41.129Z,98318.44
2022-11-15T18:57:10.513Z,98312.41
2022-11-15T18:59:40.017Z,98317.63
2022-11-15T19:02:13.357Z,98316.09
2022-11-15T19:04:42.865Z,98310.91
2022-11-15T19:07:12.395Z,98311.19
2022-11-15T19:09:44.763Z,98309.16
2022-11-15T19:12:14.354Z,98295.81
2022-11-15T19:14:44.316Z,98310.19
2022-11-15T19:17:13.657Z,98297.59
2022-11-15T19:19:43.374Z,98293.91
2022-11-15T19:22:12.808Z,98294.72
2022-11-15T19:24:43.845Z,98298.38
2022-11-15T19:27:13.222Z,98292.94
2022-11-15T19:29:42.685Z,98292.94
2022-11-15T19:32:12.239Z,98290.03
2022-11-15T19:34:41.945Z,98294.19
2022-11-15T19:37:11.527Z,98292.09
2022-11-15T19:39:42.512Z,98291.03
2022-11-15T19:42:12.083Z,98286.28
2022-11-15T19:44:41.726Z,98285.22
2022-11-15T19:47:11.128Z,98287.84
2022-11-15T19:49:40.597Z,98286.28
2022-11-15T19:52:10.138Z,98286.28
2022-11-15T19:54:39.614Z,98282.09
2022-11-15T19:57:10.412Z,98283.94
2022-11-15T19:59:39.893Z,98282.66
2022-11-15T20:02:11.845Z,98272.50
2022-11-15T20:04:41.289Z,98278.00
2022-11-15T20:07:10.803Z,98276.44
2022-11-15T20:09:40.301Z,98266.75
2022-11-15T20:12:11.267Z,98266.75
2022-11-15T20:14:40.672Z,98266.75
2022-11-15T20:17:10.174Z,98261.22
2022-11-15T20:19:39.601Z,98263.84
2022-11-15T20:22:10.523Z,98258.59
2022-11-15T20:24:39.968Z,98263.84
2022-11-15T20:27:10.763Z,98265.19
2022-11-15T20:29:43.945Z,98264.13
2022-11-15T20:32:14.605Z,98256.53
2022-11-15T20:34:44.039Z,98259.44
2022-11-15T20:37:13.623Z,98264.41
2022-11-15T20:39:43.456Z,98256.25
2022-11-15T20:42:15.002Z,98251.81
2022-11-15T20:44:44.695Z,98248.13
2022-11-15T20:47:14.619Z,98248.13
2022-11-15T20:49:44.885Z,98241.34
2022-11-15T20:52:14.440Z,98232.97
2022-11-15T20:54:44.036Z,98228.31
2022-11-15T20:57:15.497Z,98228.31
2022-11-15T20:59:45.259Z,98219.19
2022-11-15T21:02:15.411Z,98218.94
2022-11-15T21:05:03.494Z,98211.19
2022-11-15T21:07:53.386Z,98213.84
2022-11-15T21:10:59.443Z,98212.59
2022-11-15T21:13:49.251Z,98207.63
2022-11-15T21:16:37.123Z,98207.16
2022-11-15T21:19:28.949Z,98202.22
2022-11-15T21:22:21.046Z,98201.94
2022-11-15T21:25:10.362Z,98185.72
2022-11-15T21:27:58.567Z,98196.19
2022-11-15T21:30:57.006Z,98192.50
2022-11-15T21:33:45.110Z,98199.59
2022-11-15T21:36:33.258Z,98199.88
2022-11-15T21:39:21.116Z,98197.25
2022-11-15T21:42:09.248Z,98201.69
2022-11-15T21:44:57.246Z,98196.75
2022-11-15T21:47:46.948Z,98197.53
2022-11-15T21:50:34.983Z,98186.78
2022-11-15T21:53:22.860Z,98194.63
2022-11-15T21:56:11.964Z,98186.28
2022-11-15T21:58:59.934Z,98184.72
2022-11-15T22:02:05.312Z,98179.97
2022-11-15T22:04:54.572Z,98182.09
2022-11-15T22:07:42.585Z,98181.03
2022-11-15T22:10:30.757Z,98174.25
2022-11-15T22:13:18.699Z,98176.38
2022-11-15T22:16:07.435Z,98167.22
2022-11-15T22:18:55.106Z,98167.22
2022-11-15T22:21:44.311Z,98169.31
2022-11-15T22:24:32.541Z,98176.41
2022-11-15T22:27:20.584Z,98168.06
2022-11-15T22:30:10.096Z,98166.00
2022-11-15T22:32:57.824Z,98175.72
2022-11-15T22:35:46.087Z,98169.69
2022-11-15T22:38:35.998Z,98163.66
2022-11-15T22:41:24.490Z,98168.16
2022-11-15T22:44:12.529Z,98160.56
2022-11-15T22:47:00.158Z,98154.56
2022-11-15T22:49:48.222Z,98170.75
2022-11-15T22:52:36.057Z,98161.91
2022-11-15T22:55:25.364Z,98156.69
2022-11-15T22:58:13.097Z,98158.50
2022-11-15T23:01:03.446Z,98149.88
2022-11-15T23:03:51.802Z,98142.88
2022-11-15T23:06:40.077Z,98141.88
2022-11-15T23:09:28.247Z,98138.56
2022-11-15T23:12:35.049Z,98133.88
2022-11-15T23:15:23.038Z,98132.91
2022-11-15T23:18:11.330Z,98137.94
2022-11-15T23:20:59.441Z,98122.81
2022-11-15T23:23:46.363Z,98135.66
2022-11-15T23:26:34.406Z,98138.81
2022-11-15T23:29:26.481Z,98138.81
2022-11-15T23:32:31.646Z,98122.66
2022-11-15T23:35:19.874Z,98132.84
2022-11-15T23:38:07.810Z,98132.03
2022-11-15T23:40:56.996Z,98137.47
2022-11-15T23:43:44.950Z,98138.25
2022-11-15T23:46:35.095Z,98139.34
2022-11-15T23:49:23.317Z,98138.81
2022-11-15T23:52:11.962Z,98131.25
2022-11-15T23:54:59.852Z,98140.16
2022-11-15T23:57:47.549Z,98128.63
